sensor_id;sensor_type;location;lat;lon;timestamp;P1;durP1;ratioP1;P2;durP2;ratioP2
32399;SDS011;45045;45.440;9.178;2024-01-15T00:01:41;71.95;;;48.22;;
32399;SDS011;45045;45.440;9.178;2024-01-15T00:04:08;75.47;;;51.63;;
32399;SDS011;45045;45.440;9.178;2024-01-15T00:06:34;74.03;;;49.40;;
32399;SDS011;45045;45.440;9.178;2024-01-15T00:08:59;74.05;;;51.13;;
32399;SDS011;45045;45.440;9.178;2024-01-15T00:11:25;73.20;;;49.08;;
32399;SDS011;45045;45.440;9.178;2024-01-15T00:13:51;72.78;;;49.67;;
32399;SDS011;45045;45.440;9.178;2024-01-15T00:16:17;71.20;;;49.90;;
32399;SDS011;45045;45.440;9.178;2024-01-15T00:18:43;71.10;;;50.25;;
32399;SDS011;45045;45.440;9.178;2024-01-15T00:21:08;72.32;;;47.95;;
32399;SDS011;45045;45.440;9.178;2024-01-15T00:23:34;71.47;;;48.10;;
32399;SDS011;45045;45.440;9.178;2024-01-15T00:26:00;73.78;;;52.97;;
32399;SDS011;45045;45.440;9.178;2024-01-15T00:28:25;76.50;;;50.78;;
32399;SDS011;45045;45.440;9.178;2024-01-15T00:30:51;77.20;;;50.28;;
32399;SDS011;45045;45.440;9.178;2024-01-15T00:33:17;75.63;;;50.63;;
32399;SDS011;45045;45.440;9.178;2024-01-15T00:35:42;73.80;;;50.92;;
32399;SDS011;45045;45.440;9.178;2024-01-15T00:38:08;74.15;;;50.58;;
32399;SDS011;45045;45.440;9.178;2024-01-15T00:40:33;72.32;;;48.38;;
32399;SDS011;45045;45.440;9.178;2024-01-15T00:42:59;69.50;;;48.80;;
32399;SDS011;45045;45.440;9.178;2024-01-15T00:45:24;74.53;;;50.70;;
32399;SDS011;45045;45.440;9.178;2024-01-15T00:47:50;73.57;;;49.88;;
32399;SDS011;45045;45.440;9.178;2024-01-15T00:50:16;74.00;;;50.38;;
32399;SDS011;45045;45.440;9.178;2024-01-15T00:52:42;74.43;;;50.10;;
32399;SDS011;45045;45.440;9.178;2024-01-15T00:55:07;75.00;;;51.42;;
32399;SDS011;45045;45.440;9.178;2024-01-15T00:57:33;74.43;;;49.45;;
32399;SDS011;45045;45.440;9.178;2024-01-15T00:59:59;80.18;;;51.95;;
32399;SDS011;45045;45.440;9.178;2024-01-15T01:02:25;80.68;;;52.08;;
32399;SDS011;45045;45.440;9.178;2024-01-15T01:04:51;80.82;;;51.53;;
32399;SDS011;45045;45.440;9.178;2024-01-15T01:07:17;73.25;;;49.72;;
32399;SDS011;45045;45.440;9.178;2024-01-15T01:09:42;72.00;;;48.67;;
32399;SDS011;45045;45.440;9.178;2024-01-15T01:12:09;72.22;;;49.75;;
32399;SDS011;45045;45.440;9.178;2024-01-15T01:14:34;71.75;;;48.67;;
32399;SDS011;45045;45.440;9.178;2024-01-15T01:17:00;75.78;;;49.30;;
32399;SDS011;45045;45.440;9.178;2024-01-15T01:19:26;76.22;;;50.70;;
32399;SDS011;45045;45.440;9.178;2024-01-15T01:21:51;74.60;;;49.72;;
32399;SDS011;45045;45.440;9.178;2024-01-15T01:24:17;74.15;;;50.67;;
32399;SDS011;45045;45.440;9.178;2024-01-15T01:26:44;74.05;;;48.60;;
32399;SDS011;45045;45.440;9.178;2024-01-15T01:29:11;72.75;;;50.08;;
32399;SDS011;45045;45.440;9.178;2024-01-15T01:31:42;73.15;;;50.25;;
32399;SDS011;45045;45.440;9.178;2024-01-15T01:36:34;73.90;;;49.45;;
32399;SDS011;45045;45.440;9.178;2024-01-15T01:39:00;75.85;;;51.72;;
32399;SDS011;45045;45.440;9.178;2024-01-15T01:41:25;72.88;;;51.15;;
32399;SDS011;45045;45.440;9.178;2024-01-15T01:43:51;77.15;;;51.72;;
32399;SDS011;45045;45.440;9.178;2024-01-15T01:46:16;74.40;;;52.05;;
32399;SDS011;45045;45.440;9.178;2024-01-15T01:48:42;80.07;;;52.33;;
32399;SDS011;45045;45.440;9.178;2024-01-15T01:51:08;76.05;;;51.28;;
32399;SDS011;45045;45.440;9.178;2024-01-15T01:53:36;75.05;;;50.33;;
32399;SDS011;45045;45.440;9.178;2024-01-15T01:56:02;73.78;;;49.67;;
32399;SDS011;45045;45.440;9.178;2024-01-15T01:58:29;73.50;;;51.10;;
32399;SDS011;45045;45.440;9.178;2024-01-15T02:00:56;81.15;;;53.13;;
32399;SDS011;45045;45.440;9.178;2024-01-15T02:03:23;76.30;;;53.33;;
32399;SDS011;45045;45.440;9.178;2024-01-15T02:05:49;77.85;;;52.90;;
32399;SDS011;45045;45.440;9.178;2024-01-15T02:08:16;75.93;;;50.78;;
32399;SDS011;45045;45.440;9.178;2024-01-15T02:10:42;75.88;;;50.70;;
32399;SDS011;45045;45.440;9.178;2024-01-15T02:13:07;73.85;;;51.75;;
32399;SDS011;45045;45.440;9.178;2024-01-15T02:15:33;74.47;;;50.97;;
32399;SDS011;45045;45.440;9.178;2024-01-15T02:18:05;73.38;;;49.58;;
32399;SDS011;45045;45.440;9.178;2024-01-15T02:20:34;74.30;;;50.22;;
32399;SDS011;45045;45.440;9.178;2024-01-15T02:23:08;72.40;;;50.45;;
32399;SDS011;45045;45.440;9.178;2024-01-15T02:25:35;76.13;;;51.35;;
32399;SDS011;45045;45.440;9.178;2024-01-15T02:28:12;73.60;;;49.40;;
32399;SDS011;45045;45.440;9.178;2024-01-15T02:30:39;71.95;;;50.00;;
32399;SDS011;45045;45.440;9.178;2024-01-15T02:33:06;77.78;;;51.50;;
32399;SDS011;45045;45.440;9.178;2024-01-15T02:35:32;76.32;;;50.05;;
32399;SDS011;45045;45.440;9.178;2024-01-15T02:37:58;74.80;;;51.50;;
32399;SDS011;45045;45.440;9.178;2024-01-15T02:40:24;74.53;;;50.13;;
32399;SDS011;45045;45.440;9.178;2024-01-15T02:42:50;74.40;;;50.13;;
32399;SDS011;45045;45.440;9.178;2024-01-15T02:45:17;72.88;;;50.00;;
32399;SDS011;45045;45.440;9.178;2024-01-15T02:47:42;71.20;;;48.50;;
32399;SDS011;45045;45.440;9.178;2024-01-15T02:50:08;69.00;;;48.40;;
32399;SDS011;45045;45.440;9.178;2024-01-15T02:52:34;69.75;;;48.50;;
32399;SDS011;45045;45.440;9.178;2024-01-15T02:54:59;74.43;;;49.65;;
32399;SDS011;45045;45.440;9.178;2024-01-15T02:57:25;69.80;;;48.38;;
32399;SDS011;45045;45.440;9.178;2024-01-15T02:59:51;71.57;;;49.55;;
32399;SDS011;45045;45.440;9.178;2024-01-15T03:02:16;76.18;;;49.15;;
32399;SDS011;45045;45.440;9.178;2024-01-15T03:04:45;74.50;;;50.40;;
32399;SDS011;45045;45.440;9.178;2024-01-15T03:07:11;78.22;;;51.10;;
32399;SDS011;45045;45.440;9.178;2024-01-15T03:09:37;70.22;;;48.50;;
32399;SDS011;45045;45.440;9.178;2024-01-15T03:12:03;73.63;;;49.72;;
32399;SDS011;45045;45.440;9.178;2024-01-15T03:14:29;71.10;;;49.63;;
32399;SDS011;45045;45.440;9.178;2024-01-15T03:16:55;70.53;;;48.53;;
32399;SDS011;45045;45.440;9.178;2024-01-15T03:19:21;69.28;;;48.83;;
32399;SDS011;45045;45.440;9.178;2024-01-15T03:21:46;75.57;;;50.03;;
32399;SDS011;45045;45.440;9.178;2024-01-15T03:24:12;75.75;;;47.72;;
32399;SDS011;45045;45.440;9.178;2024-01-15T03:26:38;74.13;;;48.03;;
32399;SDS011;45045;45.440;9.178;2024-01-15T03:29:03;71.65;;;49.10;;
32399;SDS011;45045;45.440;9.178;2024-01-15T03:31:29;73.20;;;48.60;;
32399;SDS011;45045;45.440;9.178;2024-01-15T03:33:55;75.57;;;51.55;;
32399;SDS011;45045;45.440;9.178;2024-01-15T03:36:21;72.50;;;47.70;;
32399;SDS011;45045;45.440;9.178;2024-01-15T03:38:46;72.80;;;47.30;;
32399;SDS011;45045;45.440;9.178;2024-01-15T03:41:12;75.80;;;49.72;;
32399;SDS011;45045;45.440;9.178;2024-01-15T03:43:37;76.72;;;50.22;;
32399;SDS011;45045;45.440;9.178;2024-01-15T03:46:04;75.93;;;50.15;;
32399;SDS011;45045;45.440;9.178;2024-01-15T03:48:30;72.88;;;48.75;;
32399;SDS011;45045;45.440;9.178;2024-01-15T03:50:55;73.85;;;48.78;;
32399;SDS011;45045;45.440;9.178;2024-01-15T03:53:21;73.43;;;48.17;;
32399;SDS011;45045;45.440;9.178;2024-01-15T03:55:47;72.20;;;47.65;;
32399;SDS011;45045;45.440;9.178;2024-01-15T03:58:12;70.75;;;46.22;;
32399;SDS011;45045;45.440;9.178;2024-01-15T04:00:40;73.40;;;47.90;;
32399;SDS011;45045;45.440;9.178;2024-01-15T04:03:06;72.28;;;47.45;;
32399;SDS011;45045;45.440;9.178;2024-01-15T04:05:31;68.20;;;46.30;;
32399;SDS011;45045;45.440;9.178;2024-01-15T04:07:57;66.60;;;46.38;;
32399;SDS011;45045;45.440;9.178;2024-01-15T04:10:23;67.97;;;46.95;;
32399;SDS011;45045;45.440;9.178;2024-01-15T04:12:48;69.57;;;47.63;;
32399;SDS011;45045;45.440;9.178;2024-01-15T04:15:14;72.82;;;47.72;;
32399;SDS011;45045;45.440;9.178;2024-01-15T04:17:40;67.70;;;47.15;;
32399;SDS011;45045;45.440;9.178;2024-01-15T04:20:06;74.45;;;49.55;;
32399;SDS011;45045;45.440;9.178;2024-01-15T04:22:33;66.95;;;46.95;;
32399;SDS011;45045;45.440;9.178;2024-01-15T04:24:59;68.05;;;47.72;;
32399;SDS011;45045;45.440;9.178;2024-01-15T04:27:25;72.35;;;47.97;;
32399;SDS011;45045;45.440;9.178;2024-01-15T04:29:51;69.47;;;47.08;;
32399;SDS011;45045;45.440;9.178;2024-01-15T04:32:16;70.20;;;47.22;;
32399;SDS011;45045;45.440;9.178;2024-01-15T04:34:42;74.78;;;49.78;;
32399;SDS011;45045;45.440;9.178;2024-01-15T04:37:07;70.72;;;49.47;;
32399;SDS011;45045;45.440;9.178;2024-01-15T04:39:33;78.40;;;48.75;;
32399;SDS011;45045;45.440;9.178;2024-01-15T04:41:59;69.32;;;47.33;;
32399;SDS011;45045;45.440;9.178;2024-01-15T04:44:24;67.22;;;46.47;;
32399;SDS011;45045;45.440;9.178;2024-01-15T04:46:50;69.55;;;46.92;;
32399;SDS011;45045;45.440;9.178;2024-01-15T04:49:15;69.53;;;47.92;;
32399;SDS011;45045;45.440;9.178;2024-01-15T04:51:41;72.50;;;48.97;;
32399;SDS011;45045;45.440;9.178;2024-01-15T04:54:06;72.78;;;48.25;;
32399;SDS011;45045;45.440;9.178;2024-01-15T04:56:32;72.13;;;48.33;;
32399;SDS011;45045;45.440;9.178;2024-01-15T04:58:58;65.57;;;47.25;;
32399;SDS011;45045;45.440;9.178;2024-01-15T05:01:23;73.47;;;49.33;;
32399;SDS011;45045;45.440;9.178;2024-01-15T05:03:49;72.20;;;49.08;;
32399;SDS011;45045;45.440;9.178;2024-01-15T05:06:14;76.28;;;50.28;;
32399;SDS011;45045;45.440;9.178;2024-01-15T05:08:40;70.78;;;48.50;;
32399;SDS011;45045;45.440;9.178;2024-01-15T05:11:06;73.43;;;50.13;;
32399;SDS011;45045;45.440;9.178;2024-01-15T05:13:32;68.80;;;49.00;;
32399;SDS011;45045;45.440;9.178;2024-01-15T05:15:57;73.63;;;50.17;;
32399;SDS011;45045;45.440;9.178;2024-01-15T05:18:23;74.22;;;49.28;;
32399;SDS011;45045;45.440;9.178;2024-01-15T05:20:49;72.13;;;50.92;;
32399;SDS011;45045;45.440;9.178;2024-01-15T05:23:14;75.85;;;50.80;;
32399;SDS011;45045;45.440;9.178;2024-01-15T05:25:40;79.38;;;53.78;;
32399;SDS011;45045;45.440;9.178;2024-01-15T05:28:05;73.13;;;50.78;;
32399;SDS011;45045;45.440;9.178;2024-01-15T05:30:31;77.18;;;50.95;;
32399;SDS011;45045;45.440;9.178;2024-01-15T05:32:57;77.47;;;51.97;;
32399;SDS011;45045;45.440;9.178;2024-01-15T05:35:22;74.32;;;50.30;;
32399;SDS011;45045;45.440;9.178;2024-01-15T05:37:48;71.82;;;49.25;;
32399;SDS011;45045;45.440;9.178;2024-01-15T05:40:14;78.07;;;52.10;;
32399;SDS011;45045;45.440;9.178;2024-01-15T05:42:40;76.18;;;51.53;;
32399;SDS011;45045;45.440;9.178;2024-01-15T05:45:06;74.10;;;50.08;;
32399;SDS011;45045;45.440;9.178;2024-01-15T05:47:32;75.90;;;50.88;;
32399;SDS011;45045;45.440;9.178;2024-01-15T05:49:58;80.15;;;52.45;;
32399;SDS011;45045;45.440;9.178;2024-01-15T05:52:25;77.88;;;52.20;;
32399;SDS011;45045;45.440;9.178;2024-01-15T05:54:51;79.43;;;51.70;;
32399;SDS011;45045;45.440;9.178;2024-01-15T05:57:16;80.57;;;50.83;;
32399;SDS011;45045;45.440;9.178;2024-01-15T05:59:42;74.95;;;50.08;;
32399;SDS011;45045;45.440;9.178;2024-01-15T06:02:09;75.68;;;51.20;;
32399;SDS011;45045;45.440;9.178;2024-01-15T06:04:35;75.78;;;50.42;;
32399;SDS011;45045;45.440;9.178;2024-01-15T06:07:00;72.57;;;50.90;;
32399;SDS011;45045;45.440;9.178;2024-01-15T06:09:26;73.10;;;48.78;;
32399;SDS011;45045;45.440;9.178;2024-01-15T06:11:52;73.75;;;50.80;;
32399;SDS011;45045;45.440;9.178;2024-01-15T06:14:18;70.65;;;49.53;;
32399;SDS011;45045;45.440;9.178;2024-01-15T06:16:44;70.55;;;48.13;;
32399;SDS011;45045;45.440;9.178;2024-01-15T06:19:09;66.78;;;47.97;;
32399;SDS011;45045;45.440;9.178;2024-01-15T06:21:35;67.30;;;47.35;;
32399;SDS011;45045;45.440;9.178;2024-01-15T06:24:00;70.22;;;47.70;;
32399;SDS011;45045;45.440;9.178;2024-01-15T06:26:26;70.50;;;46.20;;
32399;SDS011;45045;45.440;9.178;2024-01-15T06:28:52;66.05;;;46.33;;
32399;SDS011;45045;45.440;9.178;2024-01-15T06:31:18;63.50;;;46.53;;
32399;SDS011;45045;45.440;9.178;2024-01-15T06:33:44;66.00;;;47.33;;
32399;SDS011;45045;45.440;9.178;2024-01-15T06:36:12;63.97;;;46.38;;
32399;SDS011;45045;45.440;9.178;2024-01-15T06:38:37;67.80;;;46.28;;
32399;SDS011;45045;45.440;9.178;2024-01-15T06:41:03;67.28;;;47.00;;
32399;SDS011;45045;45.440;9.178;2024-01-15T06:43:29;65.25;;;46.42;;
32399;SDS011;45045;45.440;9.178;2024-01-15T06:45:55;69.47;;;48.60;;
32399;SDS011;45045;45.440;9.178;2024-01-15T06:48:20;72.90;;;47.72;;
32399;SDS011;45045;45.440;9.178;2024-01-15T06:50:46;84.85;;;46.10;;
32399;SDS011;45045;45.440;9.178;2024-01-15T06:53:11;76.07;;;46.30;;
32399;SDS011;45045;45.440;9.178;2024-01-15T06:55:37;85.30;;;43.17;;
32399;SDS011;45045;45.440;9.178;2024-01-15T06:58:04;83.13;;;43.70;;
32399;SDS011;45045;45.440;9.178;2024-01-15T07:00:30;93.95;;;44.63;;
32399;SDS011;45045;45.440;9.178;2024-01-15T07:02:55;83.15;;;47.38;;
32399;SDS011;45045;45.440;9.178;2024-01-15T07:05:21;88.43;;;46.00;;
32399;SDS011;45045;45.440;9.178;2024-01-15T07:07:47;87.47;;;48.38;;
32399;SDS011;45045;45.440;9.178;2024-01-15T07:10:13;82.78;;;47.80;;
32399;SDS011;45045;45.440;9.178;2024-01-15T07:12:41;95.32;;;46.80;;
32399;SDS011;45045;45.440;9.178;2024-01-15T07:15:07;104.10;;;48.97;;
32399;SDS011;45045;45.440;9.178;2024-01-15T07:17:34;89.68;;;51.40;;
32399;SDS011;45045;45.440;9.178;2024-01-15T07:19:59;85.82;;;51.17;;
32399;SDS011;45045;45.440;9.178;2024-01-15T07:22:25;105.85;;;51.67;;
32399;SDS011;45045;45.440;9.178;2024-01-15T07:24:50;105.90;;;54.22;;
32399;SDS011;45045;45.440;9.178;2024-01-15T07:27:16;124.30;;;54.75;;
32399;SDS011;45045;45.440;9.178;2024-01-15T07:29:42;125.20;;;57.60;;
32399;SDS011;45045;45.440;9.178;2024-01-15T07:32:08;107.32;;;54.05;;
32399;SDS011;45045;45.440;9.178;2024-01-15T07:34:33;117.45;;;57.13;;
32399;SDS011;45045;45.440;9.178;2024-01-15T07:36:59;109.75;;;56.13;;
32399;SDS011;45045;45.440;9.178;2024-01-15T07:39:25;126.88;;;59.00;;
32399;SDS011;45045;45.440;9.178;2024-01-15T07:41:51;125.80;;;58.78;;
32399;SDS011;45045;45.440;9.178;2024-01-15T07:44:17;123.40;;;55.25;;
32399;SDS011;45045;45.440;9.178;2024-01-15T07:46:46;108.75;;;55.75;;
32399;SDS011;45045;45.440;9.178;2024-01-15T07:49:12;112.65;;;56.15;;
32399;SDS011;45045;45.440;9.178;2024-01-15T07:51:38;111.28;;;55.15;;
32399;SDS011;45045;45.440;9.178;2024-01-15T07:54:08;114.20;;;55.92;;
32399;SDS011;45045;45.440;9.178;2024-01-15T07:56:34;108.75;;;54.17;;
32399;SDS011;45045;45.440;9.178;2024-01-15T07:59:21;103.07;;;54.40;;
32399;SDS011;45045;45.440;9.178;2024-01-15T08:01:47;107.82;;;53.85;;
32399;SDS011;45045;45.440;9.178;2024-01-15T08:04:12;101.13;;;53.38;;
32399;SDS011;45045;45.440;9.178;2024-01-15T08:06:38;106.00;;;53.38;;
32399;SDS011;45045;45.440;9.178;2024-01-15T08:09:04;90.13;;;50.38;;
32399;SDS011;45045;45.440;9.178;2024-01-15T08:11:30;91.78;;;52.95;;
32399;SDS011;45045;45.440;9.178;2024-01-15T08:13:56;90.32;;;53.05;;
32399;SDS011;45045;45.440;9.178;2024-01-15T08:16:21;89.85;;;51.45;;
32399;SDS011;45045;45.440;9.178;2024-01-15T08:18:49;82.97;;;50.95;;
32399;SDS011;45045;45.440;9.178;2024-01-15T08:21:14;81.70;;;50.47;;
32399;SDS011;45045;45.440;9.178;2024-01-15T08:23:40;90.18;;;50.60;;
32399;SDS011;45045;45.440;9.178;2024-01-15T08:26:06;79.15;;;48.60;;
32399;SDS011;45045;45.440;9.178;2024-01-15T08:28:32;79.70;;;47.95;;
32399;SDS011;45045;45.440;9.178;2024-01-15T08:30:58;78.28;;;50.05;;
32399;SDS011;45045;45.440;9.178;2024-01-15T08:33:23;77.15;;;49.75;;
32399;SDS011;45045;45.440;9.178;2024-01-15T08:35:49;92.68;;;48.88;;
32399;SDS011;45045;45.440;9.178;2024-01-15T08:38:15;90.60;;;49.47;;
32399;SDS011;45045;45.440;9.178;2024-01-15T08:40:40;78.45;;;49.38;;
32399;SDS011;45045;45.440;9.178;2024-01-15T08:43:06;83.18;;;49.53;;
32399;SDS011;45045;45.440;9.178;2024-01-15T08:45:32;71.88;;;47.05;;
32399;SDS011;45045;45.440;9.178;2024-01-15T08:47:58;72.63;;;47.45;;
32399;SDS011;45045;45.440;9.178;2024-01-15T08:50:23;79.57;;;48.45;;
32399;SDS011;45045;45.440;9.178;2024-01-15T08:52:49;76.80;;;49.63;;
32399;SDS011;45045;45.440;9.178;2024-01-15T08:55:15;80.63;;;51.33;;
32399;SDS011;45045;45.440;9.178;2024-01-15T08:57:40;84.22;;;52.83;;
32399;SDS011;45045;45.440;9.178;2024-01-15T09:00:06;81.65;;;52.75;;
32399;SDS011;45045;45.440;9.178;2024-01-15T09:02:35;83.35;;;52.80;;
32399;SDS011;45045;45.440;9.178;2024-01-15T09:05:01;83.85;;;54.15;;
32399;SDS011;45045;45.440;9.178;2024-01-15T09:07:27;87.65;;;54.72;;
32399;SDS011;45045;45.440;9.178;2024-01-15T09:09:52;86.35;;;54.67;;
32399;SDS011;45045;45.440;9.178;2024-01-15T09:12:18;93.30;;;57.05;;
32399;SDS011;45045;45.440;9.178;2024-01-15T09:14:46;96.72;;;58.95;;
32399;SDS011;45045;45.440;9.178;2024-01-15T09:17:12;91.90;;;59.78;;
32399;SDS011;45045;45.440;9.178;2024-01-15T09:19:37;106.13;;;60.47;;
32399;SDS011;45045;45.440;9.178;2024-01-15T09:22:06;112.38;;;60.88;;
32399;SDS011;45045;45.440;9.178;2024-01-15T09:24:32;114.63;;;65.30;;
32399;SDS011;45045;45.440;9.178;2024-01-15T09:26:58;122.20;;;63.88;;
32399;SDS011;45045;45.440;9.178;2024-01-15T09:29:23;115.63;;;62.42;;
32399;SDS011;45045;45.440;9.178;2024-01-15T09:31:52;114.50;;;63.50;;
32399;SDS011;45045;45.440;9.178;2024-01-15T09:34:18;104.72;;;57.72;;
32399;SDS011;45045;45.440;9.178;2024-01-15T09:36:43;108.05;;;60.50;;
32399;SDS011;45045;45.440;9.178;2024-01-15T09:39:09;96.82;;;56.22;;
32399;SDS011;45045;45.440;9.178;2024-01-15T09:41:36;95.60;;;57.13;;
32399;SDS011;45045;45.440;9.178;2024-01-15T09:44:05;99.85;;;54.30;;
32399;SDS011;45045;45.440;9.178;2024-01-15T09:46:37;91.35;;;54.95;;
32399;SDS011;45045;45.440;9.178;2024-01-15T09:49:04;92.28;;;54.88;;
32399;SDS011;45045;45.440;9.178;2024-01-15T09:51:31;92.72;;;56.13;;
32399;SDS011;45045;45.440;9.178;2024-01-15T09:53:57;90.20;;;56.53;;
32399;SDS011;45045;45.440;9.178;2024-01-15T09:56:23;95.45;;;56.20;;
32399;SDS011;45045;45.440;9.178;2024-01-15T09:58:50;94.78;;;56.25;;
32399;SDS011;45045;45.440;9.178;2024-01-15T10:01:19;90.90;;;54.17;;
32399;SDS011;45045;45.440;9.178;2024-01-15T10:03:46;90.32;;;54.72;;
32399;SDS011;45045;45.440;9.178;2024-01-15T10:06:15;95.18;;;56.10;;
32399;SDS011;45045;45.440;9.178;2024-01-15T10:08:48;90.10;;;54.20;;
32399;SDS011;45045;45.440;9.178;2024-01-15T10:11:15;96.47;;;55.45;;
32399;SDS011;45045;45.440;9.178;2024-01-15T10:13:44;96.32;;;55.60;;
32399;SDS011;45045;45.440;9.178;2024-01-15T10:16:10;101.80;;;58.25;;
32399;SDS011;45045;45.440;9.178;2024-01-15T10:18:36;101.85;;;58.13;;
32399;SDS011;45045;45.440;9.178;2024-01-15T10:21:04;102.40;;;57.60;;
32399;SDS011;45045;45.440;9.178;2024-01-15T10:23:34;107.55;;;59.80;;
32399;SDS011;45045;45.440;9.178;2024-01-15T10:26:01;104.07;;;59.30;;
32399;SDS011;45045;45.440;9.178;2024-01-15T10:28:27;99.05;;;58.10;;
32399;SDS011;45045;45.440;9.178;2024-01-15T10:30:55;106.25;;;59.22;;
32399;SDS011;45045;45.440;9.178;2024-01-15T10:33:22;90.20;;;53.90;;
32399;SDS011;45045;45.440;9.178;2024-01-15T10:35:51;87.90;;;52.95;;
32399;SDS011;45045;45.440;9.178;2024-01-15T10:38:20;90.03;;;54.45;;
32399;SDS011;45045;45.440;9.178;2024-01-15T10:40:47;90.80;;;55.05;;
32399;SDS011;45045;45.440;9.178;2024-01-15T10:43:15;91.93;;;54.63;;
32399;SDS011;45045;45.440;9.178;2024-01-15T10:45:44;90.85;;;54.42;;
32399;SDS011;45045;45.440;9.178;2024-01-15T10:48:13;85.70;;;52.08;;
32399;SDS011;45045;45.440;9.178;2024-01-15T10:50:41;90.57;;;53.63;;
32399;SDS011;45045;45.440;9.178;2024-01-15T10:53:07;78.30;;;48.47;;
32399;SDS011;45045;45.440;9.178;2024-01-15T10:55:35;75.07;;;50.22;;
32399;SDS011;45045;45.440;9.178;2024-01-15T10:58:02;70.45;;;46.83;;
32399;SDS011;45045;45.440;9.178;2024-01-15T11:00:28;68.22;;;45.85;;
32399;SDS011;45045;45.440;9.178;2024-01-15T11:02:55;73.47;;;48.38;;
32399;SDS011;45045;45.440;9.178;2024-01-15T11:05:21;72.18;;;46.58;;
32399;SDS011;45045;45.440;9.178;2024-01-15T11:07:50;63.92;;;42.80;;
32399;SDS011;45045;45.440;9.178;2024-01-15T11:10:38;74.75;;;47.47;;
32399;SDS011;45045;45.440;9.178;2024-01-15T11:13:14;85.70;;;52.42;;
32399;SDS011;45045;45.440;9.178;2024-01-15T11:18:22;81.38;;;49.75;;
32399;SDS011;45045;45.440;9.178;2024-01-15T11:29:04;73.32;;;46.33;;
32399;SDS011;45045;45.440;9.178;2024-01-15T11:31:56;70.70;;;46.95;;
32399;SDS011;45045;45.440;9.178;2024-01-15T11:34:51;68.60;;;44.72;;
32399;SDS011;45045;45.440;9.178;2024-01-15T11:37:19;64.85;;;43.00;;
32399;SDS011;45045;45.440;9.178;2024-01-15T11:39:46;59.22;;;40.47;;
32399;SDS011;45045;45.440;9.178;2024-01-15T11:42:12;57.15;;;39.17;;
32399;SDS011;45045;45.440;9.178;2024-01-15T11:44:39;53.67;;;36.95;;
32399;SDS011;45045;45.440;9.178;2024-01-15T11:47:09;52.22;;;36.50;;
32399;SDS011;45045;45.440;9.178;2024-01-15T11:52:21;48.58;;;34.58;;
32399;SDS011;45045;45.440;9.178;2024-01-15T11:57:50;41.13;;;30.08;;
32399;SDS011;45045;45.440;9.178;2024-01-15T12:00:17;35.15;;;27.17;;
32399;SDS011;45045;45.440;9.178;2024-01-15T12:02:44;34.83;;;26.83;;
32399;SDS011;45045;45.440;9.178;2024-01-15T12:05:11;33.92;;;25.27;;
32399;SDS011;45045;45.440;9.178;2024-01-15T12:07:39;31.55;;;24.75;;
32399;SDS011;45045;45.440;9.178;2024-01-15T12:10:11;37.67;;;25.52;;
32399;SDS011;45045;45.440;9.178;2024-01-15T12:15:23;34.75;;;25.02;;
32399;SDS011;45045;45.440;9.178;2024-01-15T12:17:49;35.88;;;25.55;;
32399;SDS011;45045;45.440;9.178;2024-01-15T12:20:15;35.00;;;24.20;;
32399;SDS011;45045;45.440;9.178;2024-01-15T12:22:42;35.25;;;25.02;;
32399;SDS011;45045;45.440;9.178;2024-01-15T12:25:08;30.10;;;23.15;;
32399;SDS011;45045;45.440;9.178;2024-01-15T12:27:34;38.83;;;27.83;;
32399;SDS011;45045;45.440;9.178;2024-01-15T12:30:00;36.30;;;25.27;;
32399;SDS011;45045;45.440;9.178;2024-01-15T12:32:25;36.33;;;26.40;;
32399;SDS011;45045;45.440;9.178;2024-01-15T12:34:51;34.72;;;25.65;;
32399;SDS011;45045;45.440;9.178;2024-01-15T12:37:20;33.83;;;25.38;;
32399;SDS011;45045;45.440;9.178;2024-01-15T12:39:46;35.72;;;26.58;;
32399;SDS011;45045;45.440;9.178;2024-01-15T12:42:14;40.00;;;29.10;;
32399;SDS011;45045;45.440;9.178;2024-01-15T12:44:40;43.13;;;29.35;;
32399;SDS011;45045;45.440;9.178;2024-01-15T12:47:06;44.05;;;30.50;;
32399;SDS011;45045;45.440;9.178;2024-01-15T12:49:32;40.08;;;29.95;;
32399;SDS011;45045;45.440;9.178;2024-01-15T12:51:58;40.55;;;30.60;;
32399;SDS011;45045;45.440;9.178;2024-01-15T12:54:24;42.20;;;29.55;;
32399;SDS011;45045;45.440;9.178;2024-01-15T12:56:50;39.05;;;28.35;;
32399;SDS011;45045;45.440;9.178;2024-01-15T12:59:17;38.50;;;29.23;;
32399;SDS011;45045;45.440;9.178;2024-01-15T13:01:43;37.90;;;27.17;;
32399;SDS011;45045;45.440;9.178;2024-01-15T13:04:09;37.20;;;27.63;;
32399;SDS011;45045;45.440;9.178;2024-01-15T13:06:35;39.08;;;26.88;;
32399;SDS011;45045;45.440;9.178;2024-01-15T13:09:02;36.58;;;27.15;;
32399;SDS011;45045;45.440;9.178;2024-01-15T13:11:30;37.35;;;24.95;;
32399;SDS011;45045;45.440;9.178;2024-01-15T13:13:56;33.72;;;24.98;;
32399;SDS011;45045;45.440;9.178;2024-01-15T13:16:22;74.20;;;51.53;;
32399;SDS011;45045;45.440;9.178;2024-01-15T13:18:48;33.72;;;24.02;;
32399;SDS011;45045;45.440;9.178;2024-01-15T13:21:14;36.90;;;25.33;;
32399;SDS011;45045;45.440;9.178;2024-01-15T13:23:40;37.10;;;26.20;;
32399;SDS011;45045;45.440;9.178;2024-01-15T13:26:06;32.47;;;24.88;;
32399;SDS011;45045;45.440;9.178;2024-01-15T13:28:32;31.58;;;24.02;;
32399;SDS011;45045;45.440;9.178;2024-01-15T13:30:59;34.45;;;25.00;;
32399;SDS011;45045;45.440;9.178;2024-01-15T13:33:25;34.22;;;23.02;;
32399;SDS011;45045;45.440;9.178;2024-01-15T13:35:51;27.85;;;21.30;;
32399;SDS011;45045;45.440;9.178;2024-01-15T13:38:16;29.67;;;21.90;;
32399;SDS011;45045;45.440;9.178;2024-01-15T13:40:42;31.65;;;23.00;;
32399;SDS011;45045;45.440;9.178;2024-01-15T13:43:10;34.53;;;23.67;;
32399;SDS011;45045;45.440;9.178;2024-01-15T13:45:36;34.25;;;22.65;;
32399;SDS011;45045;45.440;9.178;2024-01-15T13:48:02;34.35;;;22.70;;
32399;SDS011;45045;45.440;9.178;2024-01-15T13:50:30;26.63;;;21.63;;
32399;SDS011;45045;45.440;9.178;2024-01-15T13:52:56;28.52;;;21.25;;
32399;SDS011;45045;45.440;9.178;2024-01-15T13:55:22;28.10;;;21.20;;
32399;SDS011;45045;45.440;9.178;2024-01-15T13:57:48;26.80;;;19.50;;
32399;SDS011;45045;45.440;9.178;2024-01-15T14:00:13;24.70;;;18.98;;
32399;SDS011;45045;45.440;9.178;2024-01-15T14:02:43;26.00;;;18.63;;
32399;SDS011;45045;45.440;9.178;2024-01-15T14:05:09;26.52;;;21.38;;
32399;SDS011;45045;45.440;9.178;2024-01-15T14:07:37;27.50;;;21.05;;
32399;SDS011;45045;45.440;9.178;2024-01-15T14:10:04;25.42;;;20.08;;
32399;SDS011;45045;45.440;9.178;2024-01-15T14:12:30;25.30;;;17.95;;
32399;SDS011;45045;45.440;9.178;2024-01-15T14:14:56;27.90;;;19.30;;
32399;SDS011;45045;45.440;9.178;2024-01-15T14:17:22;24.95;;;18.58;;
32399;SDS011;45045;45.440;9.178;2024-01-15T14:19:48;21.80;;;16.50;;
32399;SDS011;45045;45.440;9.178;2024-01-15T14:22:13;20.75;;;14.57;;
32399;SDS011;45045;45.440;9.178;2024-01-15T14:24:39;20.08;;;13.98;;
32399;SDS011;45045;45.440;9.178;2024-01-15T14:27:04;19.35;;;13.82;;
32399;SDS011;45045;45.440;9.178;2024-01-15T14:29:32;18.45;;;13.85;;
32399;SDS011;45045;45.440;9.178;2024-01-15T14:31:57;17.95;;;13.63;;
32399;SDS011;45045;45.440;9.178;2024-01-15T14:34:24;15.98;;;13.23;;
32399;SDS011;45045;45.440;9.178;2024-01-15T14:36:51;21.13;;;13.77;;
32399;SDS011;45045;45.440;9.178;2024-01-15T14:39:20;17.08;;;13.70;;